CDT,Max TemperatureF,Mean TemperatureF,Min TemperatureF,Max Dew PointF,MeanDew PointF,Min DewpointF,Max Humidity, Mean Humidity, Min Humidity, Max Sea Level PressureIn, Mean Sea Level PressureIn, Min Sea Level PressureIn, Max VisibilityMiles, Mean VisibilityMiles, Min VisibilityMiles, Max Wind SpeedMPH, Mean Wind SpeedMPH, Max Gust SpeedMPH,PrecipitationIn, CloudCover, Events, WindDirDegrees
2013-4-1,39,27,15,18,14,9,93,60,31,30.35,30.28,30.21,10,10,10,10,8,20,0.00,0,,320
2013-4-2,50,34,19,25,19,10,93,55,34,30.28,30.26,30.21,10,10,10,12,3,16,0.00,3,,96
2013-4-3,62,45,28,28,26,21,86,51,25,30.27,30.17,30.07,10,10,10,24,13,32,0.00,0,,162
2013-4-4,57,46,35,34,25,18,81,45,23,30.18,30.11,30.03,10,10,10,22,14,26,0.00,1,,336
2013-4-5,64,47,30,37,30,23,80,54,32,30.18,29.93,29.56,10,10,10,29,13,37,0.00,2,,118
2013-4-6,68,54,41,41,37,30,81,52,33,29.80,29.63,29.52,10,10,8,28,17,33,0.00,2,,296
2013-4-7,60,44,28,50,38,28,100,81,48,29.87,29.76,29.64,10,7,0,17,7,23,0.07,3,,62
2013-4-8,60,48,37,52,43,36,100,89,63,29.90,29.71,29.62,10,5,0,24,7,33,0.00,5,,44
2013-4-9,39,32,24,37,28,21,100,91,81,30.11,29.98,29.82,10,2,0,25,17,37,1.19,8,Thunderstorm,360
2013-4-10,32,29,26,30,28,25,100,94,87,30.08,29.98,29.85,3,1,0,12,5,,0.03,8,,4
2013-4-11,33,30,28,30,28,27,100,92,81,29.83,29.69,29.64,10,5,1,0,0,,0.00,8,,-1
2013-4-12,33,30,28,28,26,21,100,83,64,29.98,29.87,29.74,10,10,4,10,8,,0.00,8,,283
2013-4-13,42,34,26,36,30,21,93,81,70,29.98,29.85,29.67,10,10,10,17,7,23,0.00,5,,98
2013-4-14,51,44,37,45,36,27,93,78,50,29.64,29.47,29.31,10,10,8,29,16,39,0.00,5,,169
2013-4-15,42,36,30,28,25,19,93,67,53,30.10,29.86,29.62,10,10,10,30,18,37,0.00,4,,281
2013-4-16,46,38,30,28,27,23,87,66,49,30.25,30.20,30.09,10,10,10,17,9,22,0.00,3,,348
2013-4-17,37,34,32,36,31,27,100,86,70,30.25,30.08,29.94,10,8,1,24,13,30,0.01,8,,9
2013-4-18,32,30,28,30,27,21,93,88,69,29.96,29.87,29.83,10,5,0,32,24,39,0.01,7,,315
2013-4-19,41,32,24,27,20,16,80,64,42,30.10,29.95,29.85,10,10,10,23,19,30,0.00,1,,302
2013-4-20,39,30,21,28,22,16,93,70,48,30.23,30.16,30.11,10,10,3,15,6,21,0.00,3,,112
2013-4-21,55,44,32,45,34,27,87,73,62,30.17,30.07,30.00,10,10,10,23,10,23,0.00,4,,54
2013-4-22,39,34,28,34,30,25,100,90,80,30.32,30.18,30.10,10,6,0,20,11,26,0.00,7,,20
2013-4-23,35,26,17,27,21,14,93,75,60,30.31,30.24,30.15,10,10,10,17,13,20,0.00,2,,301
2013-4-24,53,40,26,36,27,19,87,66,43,30.16,30.08,30.00,10,10,10,31,12,48,0.00,1,,250
2013-4-25,69,48,26,37,31,23,93,57,27,30.20,30.06,29.84,10,10,10,23,9,30,0.00,1,,176
2013-4-26,73,58,42,37,33,27,71,40,20,30.16,30.04,29.90,10,10,9,23,10,32,0.00,0,,343
2013-4-27,77,56,35,43,34,28,87,44,17,30.17,30.02,29.86,10,10,7,14,4,,0.00,0,,150
2013-4-28,87,69,51,48,43,34,76,47,16,29.88,29.76,29.64,10,10,10,30,11,40,0.00,0,,178
2013-4-29,78,62,46,46,39,27,67,43,28,29.85,29.69,29.42,10,10,10,16,10,22,0.00,1,,110
2013-4-30,69,60,51,54,37,21,71,44,18,30.04,29.70,29.38,10,10,10,30,15,40,0.00,1,,311